Princesa De Sesimbra — CURP3 — position and weather

sailwx.info

Track history (hours):
 
Tides and Currents Weather Stations Pressure Air Temp Water Temp Dewpoint Dewpoint Depression Visibility Wind Speed Wind Dir Waves Ship Positions

Princesa De Sesimbra

Last reported at 2017-Oct-18 04:34 UTC. Time now 2017-Oct-18 06:10 UTC.
Position N 38°26' W 009°07'.

Length 20 m.

Type: Fishing. MMSI: 263424640.

Date/timePositionNaut miles runAvg speedWind from/ knotsBaromVisibWave heightAir tempDewpointWater temp
2017-Oct-18 04:34N 38°26' W 009°07'0 1.3
2017-Oct-18 04:30N 38°26' W 009°07'0 0.0
2017-Oct-18 04:00N 38°26' W 009°07'0 0.0
2017-Oct-18 03:30N 38°26' W 009°07'0 0.0
2017-Oct-18 03:00N 38°26' W 009°07'0 0.7
2017-Oct-18 02:30N 38°26' W 009°06'5 8.6
2017-Oct-18 01:54N 38°24' W 009°12'3 7.4
2017-Oct-18 01:30N 38°27' W 009°14'5 9.4
2017-Oct-18 01:00N 38°31' W 009°15'1 1.5
2017-Oct-18 00:27N 38°32' W 009°15'0 0.4
2017-Oct-17 23:59N 38°32' W 009°15'0 0.3
2017-Oct-17 23:30N 38°32' W 009°15'0 0.2
2017-Oct-17 22:59N 38°32' W 009°15'0 0.5
2017-Oct-17 22:30N 38°32' W 009°14'2 3.5
2017-Oct-17 22:00N 38°30' W 009°13'1 2.6
2017-Oct-17 21:30N 38°29' W 009°14'0 0.4
2017-Oct-17 20:57N 38°29' W 009°14'1 2.4
2017-Oct-17 20:30N 38°30' W 009°13'0 0.8
2017-Oct-17 19:57N 38°30' W 009°14'0 0.4
2017-Oct-17 19:28N 38°29' W 009°14'0 0.3
2017-Oct-17 18:59N 38°29' W 009°14'0 0.1
2017-Oct-17 18:28N 38°29' W 009°14'0 0.6
2017-Oct-17 18:00N 38°29' W 009°14'5 9.4
2017-Oct-17 17:30N 38°25' W 009°12'5 9.7
2017-Oct-17 17:00N 38°26' W 009°07'0 0.0
2017-Oct-17 12:57N 38°26' W 009°07'0 0.1
2017-Oct-17 12:30N 38°26' W 009°07'0 0.0
2017-Oct-17 12:00N 38°26' W 009°07'0 0.0
2017-Oct-17 11:29N 38°26' W 009°07'0 0.0
2017-Oct-17 11:00N 38°26' W 009°07'0 0.0
2017-Oct-17 10:30N 38°26' W 009°07'0 0.0
2017-Oct-17 10:00N 38°26' W 009°07'0 0.3
2017-Oct-17 09:30N 38°26' W 009°07'5 9.3
2017-Oct-17 08:54N 38°25' W 009°13'4 9.9
2017-Oct-17 08:30N 38°27' W 009°17'510.2
2017-Oct-17 08:00N 38°32' W 009°20'510.1
2017-Oct-17 07:30N 38°36' W 009°24'4 7.6
2017-Oct-17 07:00N 38°39' W 009°26'0 0.2
2017-Oct-17 06:30N 38°39' W 009°26'0 0.3
2017-Oct-17 06:00N 38°39' W 009°26'0 0.4
2017-Oct-17 05:30N 38°39' W 009°26'19 6.5
2017-Oct-17 02:33N 38°25' W 009°08'110.9
2017-Oct-17 02:30N 38°26' W 009°08'1 2.0
2017-Oct-17 01:59N 38°26' W 009°07'0 0.0
2017-Oct-17 01:28N 38°26' W 009°07'0 0.0
2017-Oct-17 01:00N 38°26' W 009°07'0 0.0
2017-Oct-17 00:29N 38°26' W 009°07'0 0.0
2017-Oct-16 23:59N 38°26' W 009°07'0 0.0
2017-Oct-16 23:28N 38°26' W 009°07'4 7.2
2017-Oct-16 22:53N 38°24' W 009°11'3 7.5
2017-Oct-16 22:30N 38°26' W 009°15'4 7.3
2017-Oct-16 21:58N 38°29' W 009°14'0 0.4
2017-Oct-16 21:30N 38°29' W 009°14'0 0.3
2017-Oct-16 20:59N 38°29' W 009°14'0 0.2
2017-Oct-16 20:30N 38°29' W 009°14'0 0.2
2017-Oct-16 20:00N 38°29' W 009°14'0 0.5
2017-Oct-16 19:28N 38°29' W 009°14'0 0.1
2017-Oct-16 19:00N 38°29' W 009°14'4 8.9
2017-Oct-16 18:30N 38°25' W 009°14'5 9.5
2017-Oct-16 18:00N 38°25' W 009°08'1 2.9
2017-Oct-16 17:30N 38°26' W 009°07'0 0.0
2017-Oct-16 17:00N 38°26' W 009°07'0 0.0
2017-Oct-16 16:29N 38°26' W 009°07'0 0.0
2017-Oct-16 16:00N 38°26' W 009°07'0 0.0
2017-Oct-16 15:30N 38°26' W 009°07'0 0.0
2017-Oct-16 15:00N 38°26' W 009°07'0 0.0
2017-Oct-16 14:00N 38°26' W 009°07'0 0.0
2017-Oct-16 13:30N 38°26' W 009°07'0 0.0
2017-Oct-16 13:00N 38°26' W 009°07'0 0.0
2017-Oct-16 12:30N 38°26' W 009°07'0 0.0
2017-Oct-16 12:00N 38°26' W 009°07'0 0.0
2017-Oct-16 11:30N 38°26' W 009°07'0 0.0
2017-Oct-16 11:00N 38°26' W 009°07'2 3.1
2017-Oct-16 10:27N 38°25' W 009°08'6 0.8
2017-Oct-16 03:22N 38°29' W 009°14'1 1.5
2017-Oct-16 03:00N 38°30' W 009°14'0 0.4
2017-Oct-16 02:29N 38°29' W 009°14'0 0.3
2017-Oct-16 01:59N 38°29' W 009°14'0 0.2
2017-Oct-16 01:30N 38°29' W 009°14'0 0.1
2017-Oct-16 01:00N 38°29' W 009°14'0 0.7
2017-Oct-16 00:30N 38°29' W 009°14'0 1.0
2017-Oct-16 00:00N 38°30' W 009°14'0 0.7
2017-Oct-15 23:30N 38°30' W 009°14'0 0.2
2017-Oct-15 23:00N 38°29' W 009°14'0 0.1
2017-Oct-15 22:30N 38°29' W 009°14'0 0.0
2017-Oct-15 22:00N 38°29' W 009°14'1 1.4
2017-Oct-15 21:30N 38°29' W 009°14'5 9.2
2017-Oct-15 21:00N 38°24' W 009°13'510.3
2017-Oct-15 20:30N 38°25' W 009°07'1 2.6
2017-Oct-15 20:00N 38°26' W 009°07'0 0.1
2017-Oct-15 19:30N 38°26' W 009°07'  
2017-Oct-13 10:20N 38°26' W 009°07'0 0.0
2017-Oct-13 10:00N 38°26' W 009°07'0 0.0
2017-Oct-13 09:30N 38°26' W 009°07'0 0.0
2017-Oct-13 09:00N 38°26' W 009°07'5 7.5
2017-Oct-13 08:22N 38°24' W 009°12'2 0.3
2017-Oct-13 02:42N 38°26' W 009°14'2 8.9
2017-Oct-13 02:27N 38°24' W 009°12'4 9.4
2017-Oct-13 02:00N 38°26' W 009°07'0 0.1
2017-Oct-13 01:30N 38°26' W 009°07'0 0.0
2017-Oct-13 00:59N 38°26' W 009°07'0 0.0
2017-Oct-13 00:30N 38°26' W 009°07'1 1.3
2017-Oct-13 00:00N 38°26' W 009°07'5 9.7
2017-Oct-12 23:30N 38°25' W 009°13'510.2
2017-Oct-12 23:00N 38°29' W 009°16'8 5.0
2017-Oct-12 21:29N 38°36' W 009°21'0 0.5
2017-Oct-12 20:50N 38°36' W 009°21'0 0.5
2017-Oct-12 20:27N 38°36' W 009°21'0 0.4
2017-Oct-12 20:00N 38°36' W 009°22'0 0.3
2017-Oct-12 19:30N 38°36' W 009°22'1 2.2
2017-Oct-12 19:01N 38°35' W 009°22'5 9.0
2017-Oct-12 18:29N 38°31' W 009°18'510.2
2017-Oct-12 17:58N 38°27' W 009°15'4 8.9
2017-Oct-12 17:30N 38°25' W 009°10'3 5.9
2017-Oct-12 17:00N 38°26' W 009°07'0 0.0
2017-Oct-12 15:47N 38°26' W 009°07'0 0.0
2017-Oct-12 15:30N 38°26' W 009°07'1 1.1
2017-Oct-12 15:00N 38°26' W 009°07'1 1.1
2017-Oct-12 14:29N 38°26' W 009°07'0 0.0
2017-Oct-12 10:56N 38°26' W 009°07'0 0.1
2017-Oct-12 10:30N 38°26' W 009°07'0 0.0
2017-Oct-12 09:57N 38°26' W 009°07'0 0.0
2017-Oct-12 09:29N 38°26' W 009°07'0 0.6
2017-Oct-12 08:58N 38°26' W 009°07'5 9.6
2017-Oct-12 08:29N 38°25' W 009°13'4 9.1
2017-Oct-12 08:00N 38°29' W 009°14'4 8.1
2017-Oct-12 07:29N 38°33' W 009°14'0 0.2
2017-Oct-12 07:00N 38°33' W 009°14'0 0.2
2017-Oct-12 06:30N 38°33' W 009°14'0 0.2
2017-Oct-12 06:00N 38°33' W 009°14'0 0.1
2017-Oct-12 05:30N 38°33' W 009°14'0 0.0
2017-Oct-12 05:00N 38°33' W 009°14'0 0.7
2017-Oct-12 04:30N 38°33' W 009°14'0 0.4
2017-Oct-12 04:00N 38°33' W 009°14'0 0.4
2017-Oct-12 03:30N 38°33' W 009°14'4 7.5
2017-Oct-12 02:59N 38°29' W 009°14'4 9.4
2017-Oct-12 02:30N 38°24' W 009°13'510.1
2017-Oct-12 01:59N 38°26' W 009°07'0 0.6
2017-Oct-12 01:30N 38°26' W 009°07'0 0.0
2017-Oct-12 01:00N 38°26' W 009°07'0 0.0
2017-Oct-12 00:30N 38°26' W 009°07'0 0.0
2017-Oct-12 00:00N 38°26' W 009°07'3 5.7
2017-Oct-11 23:30N 38°25' W 009°10'5 9.1
2017-Oct-11 23:00N 38°26' W 009°16'510.6
2017-Oct-11 22:30N 38°31' W 009°19'510.5
2017-Oct-11 22:00N 38°35' W 009°22'4 7.1
2017-Oct-11 21:30N 38°38' W 009°24'0 0.4
2017-Oct-11 21:00N 38°38' W 009°24'0 0.3
2017-Oct-11 20:30N 38°39' W 009°24'0 0.0
2017-Oct-11 20:00N 38°39' W 009°24'0 0.2
2017-Oct-11 19:30N 38°38' W 009°24'2 3.1
2017-Oct-11 19:00N 38°37' W 009°23'4 8.0
2017-Oct-11 18:30N 38°34' W 009°19'5 9.7
2017-Oct-11 17:58N 38°30' W 009°16'510.0
2017-Oct-11 17:30N 38°26' W 009°14'5 9.3
2017-Oct-11 17:00N 38°26' W 009°08'9 0.5
2017-Oct-11 00:00N 38°33' W 009°14'4 8.2
2017-Oct-10 23:30N 38°35' W 009°19'3 5.3
2017-Oct-10 23:00N 38°36' W 009°22'3 5.8
2017-Oct-10 22:30N 38°34' W 009°19'0 0.8
2017-Oct-10 22:00N 38°34' W 009°19'0 0.3
2017-Oct-10 21:30N 38°34' W 009°19'0 0.3
2017-Oct-10 21:00N 38°34' W 009°19'0 0.4
2017-Oct-10 20:30N 38°34' W 009°19'2 3.2
2017-Oct-10 20:00N 38°33' W 009°18'5 9.8
2017-Oct-10 19:30N 38°29' W 009°14'5 9.4
2017-Oct-10 19:00N 38°24' W 009°12'511.0
2017-Oct-10 18:30N 38°26' W 009°05'1 2.6
2017-Oct-10 18:00N 38°26' W 009°07'0 0.0
2017-Oct-10 12:15N 38°26' W 009°07'0 0.0
2017-Oct-10 12:00N 38°26' W 009°07'0 0.0
2017-Oct-10 11:30N 38°26' W 009°07'0 0.0
2017-Oct-10 11:00N 38°26' W 009°07'0 0.2
2017-Oct-10 10:30N 38°26' W 009°07'0 0.0
2017-Oct-10 10:00N 38°26' W 009°07'0 0.0
2017-Oct-10 09:30N 38°26' W 009°07'0 0.0
2017-Oct-10 09:00N 38°26' W 009°07'2 3.9
2017-Oct-10 08:30N 38°25' W 009°09'4 8.2
2017-Oct-10 08:00N 38°26' W 009°14'3 6.1
2017-Oct-10 07:30N 38°29' W 009°14'0 0.2
2017-Oct-10 07:00N 38°29' W 009°14'0 0.3
2017-Oct-10 06:30N 38°29' W 009°14'0 0.4
2017-Oct-10 06:00N 38°29' W 009°14'0 0.1
2017-Oct-10 05:30N 38°29' W 009°14'4 8.5
2017-Oct-10 05:00N 38°25' W 009°14'510.2
2017-Oct-10 04:30N 38°26' W 009°07'1 1.5
2017-Oct-10 04:00N 38°26' W 009°07'2 3.3
2017-Oct-10 03:30N 38°25' W 009°08'5 9.7
2017-Oct-10 03:00N 38°24' W 009°14'510.0
2017-Oct-10 02:30N 38°28' W 009°17'510.3
2017-Oct-10 02:00N 38°33' W 009°20'510.0
2017-Oct-10 01:30N 38°37' W 009°23'2 3.7
2017-Oct-10 01:00N 38°39' W 009°24'0 0.2
2017-Oct-10 00:30N 38°39' W 009°24'0 0.2
2017-Oct-10 00:00N 38°39' W 009°24'0 0.2
2017-Oct-09 23:30N 38°39' W 009°24'0 0.3
2017-Oct-09 23:00N 38°39' W 009°24'3 6.1
2017-Oct-09 22:30N 38°37' W 009°21'3 5.6
2017-Oct-09 22:00N 38°34' W 009°21'0 0.6
2017-Oct-09 21:30N 38°34' W 009°21'0 0.1
2017-Oct-09 21:00N 38°34' W 009°21'0 0.3
2017-Oct-09 20:30N 38°34' W 009°21'0 0.3
2017-Oct-09 20:00N 38°35' W 009°21'5 9.4
2017-Oct-09 19:30N 38°33' W 009°15'4 8.2
2017-Oct-09 19:00N 38°29' W 009°14'5 9.5
2017-Oct-09 18:30N 38°25' W 009°13'510.3
2017-Oct-09 18:00N 38°26' W 009°06'0 0.1
2017-Oct-09 13:11N 38°26' W 009°07'0 0.0
2017-Oct-09 13:01N 38°26' W 009°07'0 0.1
2017-Oct-09 12:30N 38°26' W 009°07'0 0.0
2017-Oct-09 12:00N 38°26' W 009°07'0 0.0
2017-Oct-09 11:31N 38°26' W 009°07'0 0.1
2017-Oct-09 11:01N 38°26' W 009°07'4 8.0
2017-Oct-09 10:30N 38°24' W 009°11'4 9.1
2017-Oct-09 10:01N 38°26' W 009°16'510.0
2017-Oct-09 09:30N 38°30' W 009°20'510.0
2017-Oct-09 09:00N 38°34' W 009°23'5 9.7
2017-Oct-09 08:31N 38°38' W 009°26'5 9.8
2017-Oct-09 08:01N 38°42' W 009°30'510.3
2017-Oct-09 07:30N 38°47' W 009°31'510.3
2017-Oct-09 07:01N 38°52' W 009°28'5 9.8
2017-Oct-09 06:31N 38°57' W 009°27'1 2.0
2017-Oct-09 06:00N 38°58' W 009°27'0 0.4
2017-Oct-09 05:30N 38°58' W 009°27'0 0.4
2017-Oct-09 05:00N 38°58' W 009°27'0 0.3
2017-Oct-09 04:31N 38°57' W 009°27'2 4.6
2017-Oct-09 04:00N 38°55' W 009°27'510.2
2017-Oct-09 03:31N 38°50' W 009°29'4 7.9
2017-Oct-09 03:00N 38°47' W 009°31'5 9.9
2017-Oct-09 02:31N 38°42' W 009°30'4 8.6
2017-Oct-09 02:01N 38°39' W 009°26'4 8.4
2017-Oct-09 01:31N 38°36' W 009°23'2 4.6
2017-Oct-09 01:00N 38°35' W 009°21'2 3.8
2017-Oct-09 00:31N 38°34' W 009°18'1 1.3
2017-Oct-09 00:01N 38°34' W 009°19'0 0.1
2017-Oct-08 23:31N 38°34' W 009°19'0 0.1
2017-Oct-08 23:01N 38°34' W 009°19'0 0.1
2017-Oct-08 22:30N 38°34' W 009°19'0 0.7
2017-Oct-08 22:01N 38°35' W 009°19'3 6.5
2017-Oct-08 21:30N 38°34' W 009°15'5 9.0
2017-Oct-08 21:01N 38°29' W 009°14'5 9.0
2017-Oct-08 20:31N 38°25' W 009°14'5 9.8
2017-Oct-08 20:00N 38°26' W 009°07'  
Track history (hours):
 
Tides and Currents Weather Stations Pressure Air Temp Water Temp Dewpoint Dewpoint Depression Visibility Wind Speed Wind Dir Waves Ship Positions

Princesa De Sesimbra

Last reported at 2017-Oct-18 04:34 UTC. Time now 2017-Oct-18 06:10 UTC.
Position N 38°26' W 009°07'.

Length 20 m.

Type: Fishing. MMSI: 263424640.

Date/timePositionNaut miles runAvg speedWind from/ knotsBaromVisibWave heightAir tempDewpointWater temp
2017-Oct-18 04:34N 38°26' W 009°07'0 1.3
2017-Oct-18 04:30N 38°26' W 009°07'0 0.0
2017-Oct-18 04:00N 38°26' W 009°07'0 0.0
2017-Oct-18 03:30N 38°26' W 009°07'0 0.0
2017-Oct-18 03:00N 38°26' W 009°07'0 0.7
2017-Oct-18 02:30N 38°26' W 009°06'5 8.6
2017-Oct-18 01:54N 38°24' W 009°12'3 7.4
2017-Oct-18 01:30N 38°27' W 009°14'5 9.4
2017-Oct-18 01:00N 38°31' W 009°15'1 1.5
2017-Oct-18 00:27N 38°32' W 009°15'0 0.4
2017-Oct-17 23:59N 38°32' W 009°15'0 0.3
2017-Oct-17 23:30N 38°32' W 009°15'0 0.2
2017-Oct-17 22:59N 38°32' W 009°15'0 0.5
2017-Oct-17 22:30N 38°32' W 009°14'2 3.5
2017-Oct-17 22:00N 38°30' W 009°13'1 2.6
2017-Oct-17 21:30N 38°29' W 009°14'0 0.4
2017-Oct-17 20:57N 38°29' W 009°14'1 2.4
2017-Oct-17 20:30N 38°30' W 009°13'0 0.8
2017-Oct-17 19:57N 38°30' W 009°14'0 0.4
2017-Oct-17 19:28N 38°29' W 009°14'0 0.3
2017-Oct-17 18:59N 38°29' W 009°14'0 0.1
2017-Oct-17 18:28N 38°29' W 009°14'0 0.6
2017-Oct-17 18:00N 38°29' W 009°14'5 9.4
2017-Oct-17 17:30N 38°25' W 009°12'5 9.7
2017-Oct-17 17:00N 38°26' W 009°07'0 0.0
2017-Oct-17 12:57N 38°26' W 009°07'0 0.1
2017-Oct-17 12:30N 38°26' W 009°07'0 0.0
2017-Oct-17 12:00N 38°26' W 009°07'0 0.0
2017-Oct-17 11:29N 38°26' W 009°07'0 0.0
2017-Oct-17 11:00N 38°26' W 009°07'0 0.0
2017-Oct-17 10:30N 38°26' W 009°07'0 0.0
2017-Oct-17 10:00N 38°26' W 009°07'0 0.3
2017-Oct-17 09:30N 38°26' W 009°07'5 9.3
2017-Oct-17 08:54N 38°25' W 009°13'4 9.9
2017-Oct-17 08:30N 38°27' W 009°17'510.2
2017-Oct-17 08:00N 38°32' W 009°20'510.1
2017-Oct-17 07:30N 38°36' W 009°24'4 7.6
2017-Oct-17 07:00N 38°39' W 009°26'0 0.2
2017-Oct-17 06:30N 38°39' W 009°26'0 0.3
2017-Oct-17 06:00N 38°39' W 009°26'0 0.4
2017-Oct-17 05:30N 38°39' W 009°26'19 6.5
2017-Oct-17 02:33N 38°25' W 009°08'110.9
2017-Oct-17 02:30N 38°26' W 009°08'1 2.0
2017-Oct-17 01:59N 38°26' W 009°07'0 0.0
2017-Oct-17 01:28N 38°26' W 009°07'0 0.0
2017-Oct-17 01:00N 38°26' W 009°07'0 0.0
2017-Oct-17 00:29N 38°26' W 009°07'0 0.0
2017-Oct-16 23:59N 38°26' W 009°07'0 0.0
2017-Oct-16 23:28N 38°26' W 009°07'4 7.2
2017-Oct-16 22:53N 38°24' W 009°11'3 7.5
2017-Oct-16 22:30N 38°26' W 009°15'4 7.3
2017-Oct-16 21:58N 38°29' W 009°14'0 0.4
2017-Oct-16 21:30N 38°29' W 009°14'0 0.3
2017-Oct-16 20:59N 38°29' W 009°14'0 0.2
2017-Oct-16 20:30N 38°29' W 009°14'0 0.2
2017-Oct-16 20:00N 38°29' W 009°14'0 0.5
2017-Oct-16 19:28N 38°29' W 009°14'0 0.1
2017-Oct-16 19:00N 38°29' W 009°14'4 8.9
2017-Oct-16 18:30N 38°25' W 009°14'5 9.5
2017-Oct-16 18:00N 38°25' W 009°08'1 2.9
2017-Oct-16 17:30N 38°26' W 009°07'0 0.0
2017-Oct-16 17:00N 38°26' W 009°07'0 0.0
2017-Oct-16 16:29N 38°26' W 009°07'0 0.0
2017-Oct-16 16:00N 38°26' W 009°07'0 0.0
2017-Oct-16 15:30N 38°26' W 009°07'0 0.0
2017-Oct-16 15:00N 38°26' W 009°07'0 0.0
2017-Oct-16 14:00N 38°26' W 009°07'0 0.0
2017-Oct-16 13:30N 38°26' W 009°07'0 0.0
2017-Oct-16 13:00N 38°26' W 009°07'0 0.0
2017-Oct-16 12:30N 38°26' W 009°07'0 0.0
2017-Oct-16 12:00N 38°26' W 009°07'0 0.0
2017-Oct-16 11:30N 38°26' W 009°07'0 0.0
2017-Oct-16 11:00N 38°26' W 009°07'2 3.1
2017-Oct-16 10:27N 38°25' W 009°08'6 0.8
2017-Oct-16 03:22N 38°29' W 009°14'1 1.5
2017-Oct-16 03:00N 38°30' W 009°14'0 0.4
2017-Oct-16 02:29N 38°29' W 009°14'0 0.3
2017-Oct-16 01:59N 38°29' W 009°14'0 0.2
2017-Oct-16 01:30N 38°29' W 009°14'0 0.1
2017-Oct-16 01:00N 38°29' W 009°14'0 0.7
2017-Oct-16 00:30N 38°29' W 009°14'0 1.0
2017-Oct-16 00:00N 38°30' W 009°14'0 0.7
2017-Oct-15 23:30N 38°30' W 009°14'0 0.2
2017-Oct-15 23:00N 38°29' W 009°14'0 0.1
2017-Oct-15 22:30N 38°29' W 009°14'0 0.0
2017-Oct-15 22:00N 38°29' W 009°14'1 1.4
2017-Oct-15 21:30N 38°29' W 009°14'5 9.2
2017-Oct-15 21:00N 38°24' W 009°13'510.3
2017-Oct-15 20:30N 38°25' W 009°07'1 2.6
2017-Oct-15 20:00N 38°26' W 009°07'0 0.1
2017-Oct-15 19:30N 38°26' W 009°07'  
2017-Oct-13 10:20N 38°26' W 009°07'0 0.0
2017-Oct-13 10:00N 38°26' W 009°07'0 0.0
2017-Oct-13 09:30N 38°26' W 009°07'0 0.0
2017-Oct-13 09:00N 38°26' W 009°07'5 7.5
2017-Oct-13 08:22N 38°24' W 009°12'2 0.3
2017-Oct-13 02:42N 38°26' W 009°14'2 8.9
2017-Oct-13 02:27N 38°24' W 009°12'4 9.4
2017-Oct-13 02:00N 38°26' W 009°07'0 0.1
2017-Oct-13 01:30N 38°26' W 009°07'0 0.0
2017-Oct-13 00:59N 38°26' W 009°07'0 0.0
2017-Oct-13 00:30N 38°26' W 009°07'1 1.3
2017-Oct-13 00:00N 38°26' W 009°07'5 9.7
2017-Oct-12 23:30N 38°25' W 009°13'510.2
2017-Oct-12 23:00N 38°29' W 009°16'8 5.0
2017-Oct-12 21:29N 38°36' W 009°21'0 0.5
2017-Oct-12 20:50N 38°36' W 009°21'0 0.5
2017-Oct-12 20:27N 38°36' W 009°21'0 0.4
2017-Oct-12 20:00N 38°36' W 009°22'0 0.3
2017-Oct-12 19:30N 38°36' W 009°22'1 2.2
2017-Oct-12 19:01N 38°35' W 009°22'5 9.0
2017-Oct-12 18:29N 38°31' W 009°18'510.2
2017-Oct-12 17:58N 38°27' W 009°15'4 8.9
2017-Oct-12 17:30N 38°25' W 009°10'3 5.9
2017-Oct-12 17:00N 38°26' W 009°07'0 0.0
2017-Oct-12 15:47N 38°26' W 009°07'0 0.0
2017-Oct-12 15:30N 38°26' W 009°07'1 1.1
2017-Oct-12 15:00N 38°26' W 009°07'1 1.1
2017-Oct-12 14:29N 38°26' W 009°07'0 0.0
2017-Oct-12 10:56N 38°26' W 009°07'0 0.1
2017-Oct-12 10:30N 38°26' W 009°07'0 0.0
2017-Oct-12 09:57N 38°26' W 009°07'0 0.0
2017-Oct-12 09:29N 38°26' W 009°07'0 0.6
2017-Oct-12 08:58N 38°26' W 009°07'5 9.6
2017-Oct-12 08:29N 38°25' W 009°13'4 9.1
2017-Oct-12 08:00N 38°29' W 009°14'4 8.1
2017-Oct-12 07:29N 38°33' W 009°14'0 0.2
2017-Oct-12 07:00N 38°33' W 009°14'0 0.2
2017-Oct-12 06:30N 38°33' W 009°14'0 0.2
2017-Oct-12 06:00N 38°33' W 009°14'0 0.1
2017-Oct-12 05:30N 38°33' W 009°14'0 0.0
2017-Oct-12 05:00N 38°33' W 009°14'0 0.7
2017-Oct-12 04:30N 38°33' W 009°14'0 0.4
2017-Oct-12 04:00N 38°33' W 009°14'0 0.4
2017-Oct-12 03:30N 38°33' W 009°14'4 7.5
2017-Oct-12 02:59N 38°29' W 009°14'4 9.4
2017-Oct-12 02:30N 38°24' W 009°13'510.1
2017-Oct-12 01:59N 38°26' W 009°07'0 0.6
2017-Oct-12 01:30N 38°26' W 009°07'0 0.0
2017-Oct-12 01:00N 38°26' W 009°07'0 0.0
2017-Oct-12 00:30N 38°26' W 009°07'0 0.0
2017-Oct-12 00:00N 38°26' W 009°07'3 5.7
2017-Oct-11 23:30N 38°25' W 009°10'5 9.1
2017-Oct-11 23:00N 38°26' W 009°16'510.6
2017-Oct-11 22:30N 38°31' W 009°19'510.5
2017-Oct-11 22:00N 38°35' W 009°22'4 7.1
2017-Oct-11 21:30N 38°38' W 009°24'0 0.4
2017-Oct-11 21:00N 38°38' W 009°24'0 0.3
2017-Oct-11 20:30N 38°39' W 009°24'0 0.0
2017-Oct-11 20:00N 38°39' W 009°24'0 0.2
2017-Oct-11 19:30N 38°38' W 009°24'2 3.1
2017-Oct-11 19:00N 38°37' W 009°23'4 8.0
2017-Oct-11 18:30N 38°34' W 009°19'5 9.7
2017-Oct-11 17:58N 38°30' W 009°16'510.0
2017-Oct-11 17:30N 38°26' W 009°14'5 9.3
2017-Oct-11 17:00N 38°26' W 009°08'9 0.5
2017-Oct-11 00:00N 38°33' W 009°14'4 8.2
2017-Oct-10 23:30N 38°35' W 009°19'3 5.3
2017-Oct-10 23:00N 38°36' W 009°22'3 5.8
2017-Oct-10 22:30N 38°34' W 009°19'0 0.8
2017-Oct-10 22:00N 38°34' W 009°19'0 0.3
2017-Oct-10 21:30N 38°34' W 009°19'0 0.3
2017-Oct-10 21:00N 38°34' W 009°19'0 0.4
2017-Oct-10 20:30N 38°34' W 009°19'2 3.2
2017-Oct-10 20:00N 38°33' W 009°18'5 9.8
2017-Oct-10 19:30N 38°29' W 009°14'5 9.4
2017-Oct-10 19:00N 38°24' W 009°12'511.0
2017-Oct-10 18:30N 38°26' W 009°05'1 2.6
2017-Oct-10 18:00N 38°26' W 009°07'0 0.0
2017-Oct-10 12:15N 38°26' W 009°07'0 0.0
2017-Oct-10 12:00N 38°26' W 009°07'0 0.0
2017-Oct-10 11:30N 38°26' W 009°07'0 0.0
2017-Oct-10 11:00N 38°26' W 009°07'0 0.2
2017-Oct-10 10:30N 38°26' W 009°07'0 0.0
2017-Oct-10 10:00N 38°26' W 009°07'0 0.0
2017-Oct-10 09:30N 38°26' W 009°07'0 0.0
2017-Oct-10 09:00N 38°26' W 009°07'2 3.9
2017-Oct-10 08:30N 38°25' W 009°09'4 8.2
2017-Oct-10 08:00N 38°26' W 009°14'3 6.1
2017-Oct-10 07:30N 38°29' W 009°14'0 0.2
2017-Oct-10 07:00N 38°29' W 009°14'0 0.3
2017-Oct-10 06:30N 38°29' W 009°14'0 0.4
2017-Oct-10 06:00N 38°29' W 009°14'0 0.1
2017-Oct-10 05:30N 38°29' W 009°14'4 8.5
2017-Oct-10 05:00N 38°25' W 009°14'510.2
2017-Oct-10 04:30N 38°26' W 009°07'1 1.5
2017-Oct-10 04:00N 38°26' W 009°07'2 3.3
2017-Oct-10 03:30N 38°25' W 009°08'5 9.7
2017-Oct-10 03:00N 38°24' W 009°14'510.0
2017-Oct-10 02:30N 38°28' W 009°17'510.3
2017-Oct-10 02:00N 38°33' W 009°20'510.0
2017-Oct-10 01:30N 38°37' W 009°23'2 3.7
2017-Oct-10 01:00N 38°39' W 009°24'0 0.2
2017-Oct-10 00:30N 38°39' W 009°24'0 0.2
2017-Oct-10 00:00N 38°39' W 009°24'0 0.2
2017-Oct-09 23:30N 38°39' W 009°24'0 0.3
2017-Oct-09 23:00N 38°39' W 009°24'3 6.1
2017-Oct-09 22:30N 38°37' W 009°21'3 5.6
2017-Oct-09 22:00N 38°34' W 009°21'0 0.6
2017-Oct-09 21:30N 38°34' W 009°21'0 0.1
2017-Oct-09 21:00N 38°34' W 009°21'0 0.3
2017-Oct-09 20:30N 38°34' W 009°21'0 0.3
2017-Oct-09 20:00N 38°35' W 009°21'5 9.4
2017-Oct-09 19:30N 38°33' W 009°15'4 8.2
2017-Oct-09 19:00N 38°29' W 009°14'5 9.5
2017-Oct-09 18:30N 38°25' W 009°13'510.3
2017-Oct-09 18:00N 38°26' W 009°06'0 0.1
2017-Oct-09 13:11N 38°26' W 009°07'0 0.0
2017-Oct-09 13:01N 38°26' W 009°07'0 0.1
2017-Oct-09 12:30N 38°26' W 009°07'0 0.0
2017-Oct-09 12:00N 38°26' W 009°07'0 0.0
2017-Oct-09 11:31N 38°26' W 009°07'0 0.1
2017-Oct-09 11:01N 38°26' W 009°07'4 8.0
2017-Oct-09 10:30N 38°24' W 009°11'4 9.1
2017-Oct-09 10:01N 38°26' W 009°16'510.0
2017-Oct-09 09:30N 38°30' W 009°20'510.0
2017-Oct-09 09:00N 38°34' W 009°23'5 9.7
2017-Oct-09 08:31N 38°38' W 009°26'5 9.8
2017-Oct-09 08:01N 38°42' W 009°30'510.3
2017-Oct-09 07:30N 38°47' W 009°31'510.3
2017-Oct-09 07:01N 38°52' W 009°28'5 9.8
2017-Oct-09 06:31N 38°57' W 009°27'1 2.0
2017-Oct-09 06:00N 38°58' W 009°27'0 0.4
2017-Oct-09 05:30N 38°58' W 009°27'0 0.4
2017-Oct-09 05:00N 38°58' W 009°27'0 0.3
2017-Oct-09 04:31N 38°57' W 009°27'2 4.6
2017-Oct-09 04:00N 38°55' W 009°27'510.2
2017-Oct-09 03:31N 38°50' W 009°29'4 7.9
2017-Oct-09 03:00N 38°47' W 009°31'5 9.9
2017-Oct-09 02:31N 38°42' W 009°30'4 8.6
2017-Oct-09 02:01N 38°39' W 009°26'4 8.4
2017-Oct-09 01:31N 38°36' W 009°23'2 4.6
2017-Oct-09 01:00N 38°35' W 009°21'2 3.8
2017-Oct-09 00:31N 38°34' W 009°18'1 1.3
2017-Oct-09 00:01N 38°34' W 009°19'0 0.1
2017-Oct-08 23:31N 38°34' W 009°19'0 0.1
2017-Oct-08 23:01N 38°34' W 009°19'0 0.1
2017-Oct-08 22:30N 38°34' W 009°19'0 0.7
2017-Oct-08 22:01N 38°35' W 009°19'3 6.5
2017-Oct-08 21:30N 38°34' W 009°15'5 9.0
2017-Oct-08 21:01N 38°29' W 009°14'5 9.0
2017-Oct-08 20:31N 38°25' W 009°14'5 9.8
2017-Oct-08 20:00N 38°26' W 009°07'  

Dump ship's entire track history